sensor_id;sensor_type;location;lat;lon;timestamp;temperature;humidity
21033;DHT22;10675;47.976;7.824;2023-03-23T00:01:07;13.60;82.90
21033;DHT22;10675;47.976;7.824;2023-03-23T00:03:35;13.60;83.00
21033;DHT22;10675;47.976;7.824;2023-03-23T00:06:01;13.70;82.90
21033;DHT22;10675;47.976;7.824;2023-03-23T00:08:34;13.70;83.10
21033;DHT22;10675;47.976;7.824;2023-03-23T00:11:06;13.70;82.40
21033;DHT22;10675;47.976;7.824;2023-03-23T00:13:32;13.70;82.30
21033;DHT22;10675;47.976;7.824;2023-03-23T00:15:58;13.90;80.70
21033;DHT22;10675;47.976;7.824;2023-03-23T00:18:24;14.00;80.00
21033;DHT22;10675;47.976;7.824;2023-03-23T00:20:55;14.10;79.70
21033;DHT22;10675;47.976;7.824;2023-03-23T00:23:23;14.70;76.10
21033;DHT22;10675;47.976;7.824;2023-03-23T00:25:52;14.70;76.90
21033;DHT22;10675;47.976;7.824;2023-03-23T00:28:19;14.70;77.80
21033;DHT22;10675;47.976;7.824;2023-03-23T00:31:01;14.50;76.20
21033;DHT22;10675;47.976;7.824;2023-03-23T00:33:29;15.10;74.20
21033;DHT22;10675;47.976;7.824;2023-03-23T00:35:55;15.40;72.50
21033;DHT22;10675;47.976;7.824;2023-03-23T00:38:22;15.40;72.50
21033;DHT22;10675;47.976;7.824;2023-03-23T00:40:48;15.60;71.30
21033;DHT22;10675;47.976;7.824;2023-03-23T00:43:16;15.80;70.70
21033;DHT22;10675;47.976;7.824;2023-03-23T00:45:43;15.80;70.40
21033;DHT22;10675;47.976;7.824;2023-03-23T00:48:24;15.90;70.40
21033;DHT22;10675;47.976;7.824;2023-03-23T00:50:51;15.80;70.90
21033;DHT22;10675;47.976;7.824;2023-03-23T00:53:17;15.80;70.60
21033;DHT22;10675;47.976;7.824;2023-03-23T00:55:44;15.80;70.90
21033;DHT22;10675;47.976;7.824;2023-03-23T00:58:11;15.80;70.50
21033;DHT22;10675;47.976;7.824;2023-03-23T01:00:37;15.90;70.40
21033;DHT22;10675;47.976;7.824;2023-03-23T01:03:03;16.00;70.30
21033;DHT22;10675;47.976;7.824;2023-03-23T01:05:32;16.10;69.70
21033;DHT22;10675;47.976;7.824;2023-03-23T01:07:59;16.10;69.20
21033;DHT22;10675;47.976;7.824;2023-03-23T01:10:24;16.30;68.90
21033;DHT22;10675;47.976;7.824;2023-03-23T01:12:52;16.20;69.00
21033;DHT22;10675;47.976;7.824;2023-03-23T01:15:18;16.30;68.10
21033;DHT22;10675;47.976;7.824;2023-03-23T01:17:44;16.30;68.10
21033;DHT22;10675;47.976;7.824;2023-03-23T01:20:12;16.30;67.90
21033;DHT22;10675;47.976;7.824;2023-03-23T01:22:38;16.30;68.10
21033;DHT22;10675;47.976;7.824;2023-03-23T01:25:05;16.30;68.50
21033;DHT22;10675;47.976;7.824;2023-03-23T01:27:31;16.40;68.30
21033;DHT22;10675;47.976;7.824;2023-03-23T01:29:57;16.30;68.40
21033;DHT22;10675;47.976;7.824;2023-03-23T01:32:22;16.40;67.90
21033;DHT22;10675;47.976;7.824;2023-03-23T01:34:48;16.50;67.10
21033;DHT22;10675;47.976;7.824;2023-03-23T01:37:13;16.50;67.20
21033;DHT22;10675;47.976;7.824;2023-03-23T01:39:41;16.50;67.20
21033;DHT22;10675;47.976;7.824;2023-03-23T01:42:08;16.50;66.80
21033;DHT22;10675;47.976;7.824;2023-03-23T01:46:59;16.70;65.70
21033;DHT22;10675;47.976;7.824;2023-03-23T01:49:29;16.70;65.90
21033;DHT22;10675;47.976;7.824;2023-03-23T01:52:01;16.70;65.50
21033;DHT22;10675;47.976;7.824;2023-03-23T01:54:28;16.60;65.60
21033;DHT22;10675;47.976;7.824;2023-03-23T01:56:55;16.70;65.50
21033;DHT22;10675;47.976;7.824;2023-03-23T01:59:23;16.70;65.40
21033;DHT22;10675;47.976;7.824;2023-03-23T02:01:51;16.80;64.20
21033;DHT22;10675;47.976;7.824;2023-03-23T02:04:18;16.70;64.90
21033;DHT22;10675;47.976;7.824;2023-03-23T02:06:45;16.70;64.40
21033;DHT22;10675;47.976;7.824;2023-03-23T02:09:12;16.70;64.00
21033;DHT22;10675;47.976;7.824;2023-03-23T02:11:45;16.90;62.70
21033;DHT22;10675;47.976;7.824;2023-03-23T02:14:11;16.90;63.20
21033;DHT22;10675;47.976;7.824;2023-03-23T02:25:00;16.90;62.90
21033;DHT22;10675;47.976;7.824;2023-03-23T02:28:28;17.00;62.50
21033;DHT22;10675;47.976;7.824;2023-03-23T02:33:43;17.00;62.10
21033;DHT22;10675;47.976;7.824;2023-03-23T02:36:52;17.00;62.10
21033;DHT22;10675;47.976;7.824;2023-03-23T02:41:45;17.00;62.20
21033;DHT22;10675;47.976;7.824;2023-03-23T02:44:13;17.00;62.40
21033;DHT22;10675;47.976;7.824;2023-03-23T02:46:40;17.00;62.50
21033;DHT22;10675;47.976;7.824;2023-03-23T02:49:08;17.00;62.20
21033;DHT22;10675;47.976;7.824;2023-03-23T02:51:35;17.00;62.30
21033;DHT22;10675;47.976;7.824;2023-03-23T02:54:02;17.00;62.30
21033;DHT22;10675;47.976;7.824;2023-03-23T02:56:29;17.00;62.30
21033;DHT22;10675;47.976;7.824;2023-03-23T02:58:55;17.00;62.20
21033;DHT22;10675;47.976;7.824;2023-03-23T03:04:01;16.90;62.70
21033;DHT22;10675;47.976;7.824;2023-03-23T03:09:31;16.80;63.10
21033;DHT22;10675;47.976;7.824;2023-03-23T03:12:05;16.80;63.10
21033;DHT22;10675;47.976;7.824;2023-03-23T03:14:39;16.80;63.00
21033;DHT22;10675;47.976;7.824;2023-03-23T03:17:22;16.90;62.10
21033;DHT22;10675;47.976;7.824;2023-03-23T03:19:52;17.00;61.70
21033;DHT22;10675;47.976;7.824;2023-03-23T03:22:21;17.00;61.40
21033;DHT22;10675;47.976;7.824;2023-03-23T03:24:47;17.00;61.20
21033;DHT22;10675;47.976;7.824;2023-03-23T03:27:17;17.00;61.40
21033;DHT22;10675;47.976;7.824;2023-03-23T03:29:46;17.10;61.10
21033;DHT22;10675;47.976;7.824;2023-03-23T03:32:15;17.10;60.80
21033;DHT22;10675;47.976;7.824;2023-03-23T03:34:42;17.00;61.10
21033;DHT22;10675;47.976;7.824;2023-03-23T03:37:08;17.20;60.40
21033;DHT22;10675;47.976;7.824;2023-03-23T03:39:37;17.10;60.50
21033;DHT22;10675;47.976;7.824;2023-03-23T03:42:04;17.10;60.90
21033;DHT22;10675;47.976;7.824;2023-03-23T03:44:30;17.20;60.20
21033;DHT22;10675;47.976;7.824;2023-03-23T03:46:56;17.20;59.70
21033;DHT22;10675;47.976;7.824;2023-03-23T03:49:21;17.20;59.90
21033;DHT22;10675;47.976;7.824;2023-03-23T03:51:48;17.20;59.70
21033;DHT22;10675;47.976;7.824;2023-03-23T03:54:13;17.20;59.90
21033;DHT22;10675;47.976;7.824;2023-03-23T03:56:39;17.20;59.40
21033;DHT22;10675;47.976;7.824;2023-03-23T03:59:09;17.20;59.70
21033;DHT22;10675;47.976;7.824;2023-03-23T04:01:36;17.20;59.50
21033;DHT22;10675;47.976;7.824;2023-03-23T04:04:02;17.20;59.50
21033;DHT22;10675;47.976;7.824;2023-03-23T04:06:28;17.30;59.10
21033;DHT22;10675;47.976;7.824;2023-03-23T04:08:58;17.20;59.50
21033;DHT22;10675;47.976;7.824;2023-03-23T04:11:25;17.20;59.40
21033;DHT22;10675;47.976;7.824;2023-03-23T04:13:51;17.20;59.20
21033;DHT22;10675;47.976;7.824;2023-03-23T04:16:17;17.20;59.30
21033;DHT22;10675;47.976;7.824;2023-03-23T04:18:42;17.30;59.10
21033;DHT22;10675;47.976;7.824;2023-03-23T04:21:08;17.20;59.70
21033;DHT22;10675;47.976;7.824;2023-03-23T04:23:34;17.20;59.20
21033;DHT22;10675;47.976;7.824;2023-03-23T04:26:01;17.20;59.20
21033;DHT22;10675;47.976;7.824;2023-03-23T04:28:28;17.20;59.40
21033;DHT22;10675;47.976;7.824;2023-03-23T04:30:55;17.20;59.50
21033;DHT22;10675;47.976;7.824;2023-03-23T04:33:25;17.10;59.70
21033;DHT22;10675;47.976;7.824;2023-03-23T04:35:55;17.10;60.10
21033;DHT22;10675;47.976;7.824;2023-03-23T04:38:23;17.10;60.20
21033;DHT22;10675;47.976;7.824;2023-03-23T04:40:51;17.10;60.00
21033;DHT22;10675;47.976;7.824;2023-03-23T04:43:18;17.10;60.60
21033;DHT22;10675;47.976;7.824;2023-03-23T04:45:51;17.10;60.40
21033;DHT22;10675;47.976;7.824;2023-03-23T04:48:17;17.10;60.70
21033;DHT22;10675;47.976;7.824;2023-03-23T04:50:44;17.10;60.60
21033;DHT22;10675;47.976;7.824;2023-03-23T04:53:09;17.10;60.90
21033;DHT22;10675;47.976;7.824;2023-03-23T04:55:36;17.00;61.00
21033;DHT22;10675;47.976;7.824;2023-03-23T04:58:03;17.10;60.90
21033;DHT22;10675;47.976;7.824;2023-03-23T05:00:29;17.10;61.10
21033;DHT22;10675;47.976;7.824;2023-03-23T05:02:55;17.00;61.60
21033;DHT22;10675;47.976;7.824;2023-03-23T05:05:22;16.90;61.50
21033;DHT22;10675;47.976;7.824;2023-03-23T05:07:49;16.90;62.00
21033;DHT22;10675;47.976;7.824;2023-03-23T05:10:15;16.80;62.00
21033;DHT22;10675;47.976;7.824;2023-03-23T05:12:42;16.80;62.00
21033;DHT22;10675;47.976;7.824;2023-03-23T05:15:09;16.80;62.60
21033;DHT22;10675;47.976;7.824;2023-03-23T05:17:35;16.70;62.90
21033;DHT22;10675;47.976;7.824;2023-03-23T05:20:03;16.70;63.20
21033;DHT22;10675;47.976;7.824;2023-03-23T05:22:30;16.70;63.30
21033;DHT22;10675;47.976;7.824;2023-03-23T05:24:58;16.60;63.40
21033;DHT22;10675;47.976;7.824;2023-03-23T05:27:24;16.60;63.80
21033;DHT22;10675;47.976;7.824;2023-03-23T05:29:53;16.50;64.00
21033;DHT22;10675;47.976;7.824;2023-03-23T05:32:18;16.50;64.00
21033;DHT22;10675;47.976;7.824;2023-03-23T05:34:45;16.50;64.70
21033;DHT22;10675;47.976;7.824;2023-03-23T05:37:12;16.50;64.50
21033;DHT22;10675;47.976;7.824;2023-03-23T05:39:38;16.50;65.50
21033;DHT22;10675;47.976;7.824;2023-03-23T05:42:05;16.50;65.20
21033;DHT22;10675;47.976;7.824;2023-03-23T05:44:31;16.40;65.70
21033;DHT22;10675;47.976;7.824;2023-03-23T05:46:57;16.30;65.80
21033;DHT22;10675;47.976;7.824;2023-03-23T05:49:22;16.30;66.10
21033;DHT22;10675;47.976;7.824;2023-03-23T05:51:49;16.30;66.30
21033;DHT22;10675;47.976;7.824;2023-03-23T05:54:15;16.30;66.30
21033;DHT22;10675;47.976;7.824;2023-03-23T05:56:41;16.30;66.70
21033;DHT22;10675;47.976;7.824;2023-03-23T05:59:07;16.20;67.50
21033;DHT22;10675;47.976;7.824;2023-03-23T06:01:33;16.20;67.50
21033;DHT22;10675;47.976;7.824;2023-03-23T06:03:59;16.20;67.10
21033;DHT22;10675;47.976;7.824;2023-03-23T06:06:25;16.10;67.50
21033;DHT22;10675;47.976;7.824;2023-03-23T06:08:51;16.10;67.10
21033;DHT22;10675;47.976;7.824;2023-03-23T06:11:17;16.20;67.40
21033;DHT22;10675;47.976;7.824;2023-03-23T06:13:44;16.10;67.70
21033;DHT22;10675;47.976;7.824;2023-03-23T06:16:10;16.10;68.40
21033;DHT22;10675;47.976;7.824;2023-03-23T06:18:35;16.00;69.40
21033;DHT22;10675;47.976;7.824;2023-03-23T06:21:03;15.90;70.00
21033;DHT22;10675;47.976;7.824;2023-03-23T06:23:28;15.90;70.30
21033;DHT22;10675;47.976;7.824;2023-03-23T06:25:59;16.00;69.90
21033;DHT22;10675;47.976;7.824;2023-03-23T06:28:25;15.90;71.20
21033;DHT22;10675;47.976;7.824;2023-03-23T06:30:52;16.00;71.00
21033;DHT22;10675;47.976;7.824;2023-03-23T06:33:18;15.90;70.70
21033;DHT22;10675;47.976;7.824;2023-03-23T06:35:43;15.90;70.70
21033;DHT22;10675;47.976;7.824;2023-03-23T06:38:09;15.90;70.80
21033;DHT22;10675;47.976;7.824;2023-03-23T06:40:35;15.80;71.00
21033;DHT22;10675;47.976;7.824;2023-03-23T06:43:04;15.70;71.20
21033;DHT22;10675;47.976;7.824;2023-03-23T06:45:31;15.80;71.30
21033;DHT22;10675;47.976;7.824;2023-03-23T06:47:56;15.70;71.60
21033;DHT22;10675;47.976;7.824;2023-03-23T06:50:22;15.80;71.70
21033;DHT22;10675;47.976;7.824;2023-03-23T06:52:49;15.90;71.40
21033;DHT22;10675;47.976;7.824;2023-03-23T06:55:17;15.90;71.50
21033;DHT22;10675;47.976;7.824;2023-03-23T06:57:43;15.80;70.90
21033;DHT22;10675;47.976;7.824;2023-03-23T07:00:10;15.90;71.20
21033;DHT22;10675;47.976;7.824;2023-03-23T07:02:38;15.80;71.00
21033;DHT22;10675;47.976;7.824;2023-03-23T07:05:04;15.80;71.40
21033;DHT22;10675;47.976;7.824;2023-03-23T07:07:30;15.80;71.40
21033;DHT22;10675;47.976;7.824;2023-03-23T07:09:55;15.80;71.60
21033;DHT22;10675;47.976;7.824;2023-03-23T07:12:21;15.80;71.80
21033;DHT22;10675;47.976;7.824;2023-03-23T07:14:47;15.70;72.40
21033;DHT22;10675;47.976;7.824;2023-03-23T07:17:13;15.80;72.00
21033;DHT22;10675;47.976;7.824;2023-03-23T07:19:39;15.70;72.00
21033;DHT22;10675;47.976;7.824;2023-03-23T07:22:06;15.70;72.10
21033;DHT22;10675;47.976;7.824;2023-03-23T07:24:34;15.80;72.40
21033;DHT22;10675;47.976;7.824;2023-03-23T07:27:00;15.80;72.90
21033;DHT22;10675;47.976;7.824;2023-03-23T07:29:26;15.70;72.60
21033;DHT22;10675;47.976;7.824;2023-03-23T07:31:53;15.70;73.20
21033;DHT22;10675;47.976;7.824;2023-03-23T07:34:19;15.70;74.80
21033;DHT22;10675;47.976;7.824;2023-03-23T07:36:45;15.60;74.90
21033;DHT22;10675;47.976;7.824;2023-03-23T07:39:11;15.50;76.60
21033;DHT22;10675;47.976;7.824;2023-03-23T07:41:37;15.40;77.10
21033;DHT22;10675;47.976;7.824;2023-03-23T07:44:03;15.40;77.50
21033;DHT22;10675;47.976;7.824;2023-03-23T07:46:29;15.30;77.70
21033;DHT22;10675;47.976;7.824;2023-03-23T07:48:55;15.20;78.50
21033;DHT22;10675;47.976;7.824;2023-03-23T07:51:22;15.20;78.70
21033;DHT22;10675;47.976;7.824;2023-03-23T07:53:48;15.10;80.50
21033;DHT22;10675;47.976;7.824;2023-03-23T07:56:14;14.90;82.10
21033;DHT22;10675;47.976;7.824;2023-03-23T07:58:44;14.80;82.70
21033;DHT22;10675;47.976;7.824;2023-03-23T08:01:10;14.80;83.90
21033;DHT22;10675;47.976;7.824;2023-03-23T08:03:36;14.70;83.80
21033;DHT22;10675;47.976;7.824;2023-03-23T08:06:02;14.80;83.70
21033;DHT22;10675;47.976;7.824;2023-03-23T08:08:28;14.70;85.30
21033;DHT22;10675;47.976;7.824;2023-03-23T08:10:53;14.60;86.80
21033;DHT22;10675;47.976;7.824;2023-03-23T08:13:19;14.50;87.60
21033;DHT22;10675;47.976;7.824;2023-03-23T08:15:44;14.50;88.60
21033;DHT22;10675;47.976;7.824;2023-03-23T08:18:10;14.40;87.80
21033;DHT22;10675;47.976;7.824;2023-03-23T08:20:36;14.50;88.20
21033;DHT22;10675;47.976;7.824;2023-03-23T08:23:03;14.40;88.50
21033;DHT22;10675;47.976;7.824;2023-03-23T08:25:29;14.40;90.40
21033;DHT22;10675;47.976;7.824;2023-03-23T08:27:57;14.40;91.40
21033;DHT22;10675;47.976;7.824;2023-03-23T08:30:23;14.40;92.60
21033;DHT22;10675;47.976;7.824;2023-03-23T08:32:51;14.40;94.10
21033;DHT22;10675;47.976;7.824;2023-03-23T08:35:18;14.40;94.90
21033;DHT22;10675;47.976;7.824;2023-03-23T08:37:44;14.30;95.70
21033;DHT22;10675;47.976;7.824;2023-03-23T08:40:12;14.30;95.90
21033;DHT22;10675;47.976;7.824;2023-03-23T08:42:42;14.20;96.00
21033;DHT22;10675;47.976;7.824;2023-03-23T08:45:10;14.20;96.50
21033;DHT22;10675;47.976;7.824;2023-03-23T08:47:37;14.30;96.40
21033;DHT22;10675;47.976;7.824;2023-03-23T08:50:04;14.20;97.30
21033;DHT22;10675;47.976;7.824;2023-03-23T08:52:30;14.30;97.90
21033;DHT22;10675;47.976;7.824;2023-03-23T08:54:56;14.30;98.00
21033;DHT22;10675;47.976;7.824;2023-03-23T08:57:23;14.30;98.20
21033;DHT22;10675;47.976;7.824;2023-03-23T08:59:49;14.30;99.00
21033;DHT22;10675;47.976;7.824;2023-03-23T09:02:15;14.40;97.70
21033;DHT22;10675;47.976;7.824;2023-03-23T09:04:41;14.40;96.60
21033;DHT22;10675;47.976;7.824;2023-03-23T09:07:09;14.60;94.60
21033;DHT22;10675;47.976;7.824;2023-03-23T09:09:36;14.80;94.40
21033;DHT22;10675;47.976;7.824;2023-03-23T09:12:03;14.90;94.20
21033;DHT22;10675;47.976;7.824;2023-03-23T09:14:28;15.10;94.10
21033;DHT22;10675;47.976;7.824;2023-03-23T09:16:54;15.10;94.70
21033;DHT22;10675;47.976;7.824;2023-03-23T09:19:19;15.20;95.80
21033;DHT22;10675;47.976;7.824;2023-03-23T09:21:46;15.30;94.30
21033;DHT22;10675;47.976;7.824;2023-03-23T09:24:11;15.40;92.90
21033;DHT22;10675;47.976;7.824;2023-03-23T09:26:37;15.50;91.90
21033;DHT22;10675;47.976;7.824;2023-03-23T09:29:03;15.50;91.40
21033;DHT22;10675;47.976;7.824;2023-03-23T09:31:28;15.60;92.70
21033;DHT22;10675;47.976;7.824;2023-03-23T09:33:57;15.80;91.60
21033;DHT22;10675;47.976;7.824;2023-03-23T09:36:24;16.00;90.50
21033;DHT22;10675;47.976;7.824;2023-03-23T09:38:51;16.10;89.20
21033;DHT22;10675;47.976;7.824;2023-03-23T09:41:46;16.20;87.70
21033;DHT22;10675;47.976;7.824;2023-03-23T09:44:32;16.20;86.30
21033;DHT22;10675;47.976;7.824;2023-03-23T09:49:46;16.20;81.00
21033;DHT22;10675;47.976;7.824;2023-03-23T09:52:15;16.30;79.80
21033;DHT22;10675;47.976;7.824;2023-03-23T09:54:47;16.40;78.90
21033;DHT22;10675;47.976;7.824;2023-03-23T10:00:15;16.60;77.10
21033;DHT22;10675;47.976;7.824;2023-03-23T10:02:58;16.70;77.50
21033;DHT22;10675;47.976;7.824;2023-03-23T10:05:35;16.80;77.10
21033;DHT22;10675;47.976;7.824;2023-03-23T10:08:05;16.80;77.50
21033;DHT22;10675;47.976;7.824;2023-03-23T10:15:57;16.90;74.70
21033;DHT22;10675;47.976;7.824;2023-03-23T10:18:37;16.90;75.70
21033;DHT22;10675;47.976;7.824;2023-03-23T10:21:04;16.90;75.70
21033;DHT22;10675;47.976;7.824;2023-03-23T10:24:04;17.00;72.90
21033;DHT22;10675;47.976;7.824;2023-03-23T10:29:46;17.20;72.20
21033;DHT22;10675;47.976;7.824;2023-03-23T10:32:15;17.30;71.40
21033;DHT22;10675;47.976;7.824;2023-03-23T10:34:56;17.50;72.90
21033;DHT22;10675;47.976;7.824;2023-03-23T10:37:29;17.60;71.50
21033;DHT22;10675;47.976;7.824;2023-03-23T10:39:59;17.70;69.90
21033;DHT22;10675;47.976;7.824;2023-03-23T10:42:31;17.70;70.70
21033;DHT22;10675;47.976;7.824;2023-03-23T10:44:59;17.80;71.20
21033;DHT22;10675;47.976;7.824;2023-03-23T10:47:25;17.90;69.00
21033;DHT22;10675;47.976;7.824;2023-03-23T10:49:58;17.80;69.20
21033;DHT22;10675;47.976;7.824;2023-03-23T10:52:26;17.90;69.70
21033;DHT22;10675;47.976;7.824;2023-03-23T10:57:33;18.00;68.80
21033;DHT22;10675;47.976;7.824;2023-03-23T11:00:17;18.00;69.40
21033;DHT22;10675;47.976;7.824;2023-03-23T11:05:49;17.90;69.70
21033;DHT22;10675;47.976;7.824;2023-03-23T11:08:27;18.00;70.10
21033;DHT22;10675;47.976;7.824;2023-03-23T11:11:06;18.10;71.10
21033;DHT22;10675;47.976;7.824;2023-03-23T11:13:32;18.00;68.30
21033;DHT22;10675;47.976;7.824;2023-03-23T11:15:59;17.80;69.20
21033;DHT22;10675;47.976;7.824;2023-03-23T11:18:46;17.80;69.00
21033;DHT22;10675;47.976;7.824;2023-03-23T11:21:13;18.00;69.50
21033;DHT22;10675;47.976;7.824;2023-03-23T11:23:42;17.80;69.00
21033;DHT22;10675;47.976;7.824;2023-03-23T11:26:24;17.80;69.80
21033;DHT22;10675;47.976;7.824;2023-03-23T11:29:09;17.70;69.70
21033;DHT22;10675;47.976;7.824;2023-03-23T11:31:41;17.70;69.90
21033;DHT22;10675;47.976;7.824;2023-03-23T11:34:13;17.70;69.40
21033;DHT22;10675;47.976;7.824;2023-03-23T11:36:48;17.70;69.40
21033;DHT22;10675;47.976;7.824;2023-03-23T11:39:24;17.80;69.60
21033;DHT22;10675;47.976;7.824;2023-03-23T11:41:50;17.80;69.70
21033;DHT22;10675;47.976;7.824;2023-03-23T11:44:16;18.00;70.30
21033;DHT22;10675;47.976;7.824;2023-03-23T11:46:49;18.10;70.50
21033;DHT22;10675;47.976;7.824;2023-03-23T11:52:51;18.20;69.90
21033;DHT22;10675;47.976;7.824;2023-03-23T11:55:23;18.30;69.90
21033;DHT22;10675;47.976;7.824;2023-03-23T11:57:51;18.20;68.70
21033;DHT22;10675;47.976;7.824;2023-03-23T12:00:19;18.30;68.80
21033;DHT22;10675;47.976;7.824;2023-03-23T12:06:08;18.30;69.30
21033;DHT22;10675;47.976;7.824;2023-03-23T12:11:51;18.10;69.50
21033;DHT22;10675;47.976;7.824;2023-03-23T12:15:08;18.20;70.10
21033;DHT22;10675;47.976;7.824;2023-03-23T12:23:03;18.30;69.60
21033;DHT22;10675;47.976;7.824;2023-03-23T12:32:02;18.10;66.70
21033;DHT22;10675;47.976;7.824;2023-03-23T12:37:31;18.20;67.80
21033;DHT22;10675;47.976;7.824;2023-03-23T12:51:41;17.90;67.40
21033;DHT22;10675;47.976;7.824;2023-03-23T12:54:30;17.80;68.30
21033;DHT22;10675;47.976;7.824;2023-03-23T12:57:24;17.70;67.50
21033;DHT22;10675;47.976;7.824;2023-03-23T13:02:37;17.60;69.10
21033;DHT22;10675;47.976;7.824;2023-03-23T13:05:32;17.70;69.50
21033;DHT22;10675;47.976;7.824;2023-03-23T13:08:17;17.70;69.50
21033;DHT22;10675;47.976;7.824;2023-03-23T13:10:51;17.70;68.50
21033;DHT22;10675;47.976;7.824;2023-03-23T13:13:22;17.70;68.50
21033;DHT22;10675;47.976;7.824;2023-03-23T13:19:04;17.60;68.50
21033;DHT22;10675;47.976;7.824;2023-03-23T13:21:46;17.60;68.40
21033;DHT22;10675;47.976;7.824;2023-03-23T13:24:15;17.60;69.10
21033;DHT22;10675;47.976;7.824;2023-03-23T13:26:43;17.60;69.90
21033;DHT22;10675;47.976;7.824;2023-03-23T13:29:14;17.60;69.90
21033;DHT22;10675;47.976;7.824;2023-03-23T13:31:44;17.60;70.10
21033;DHT22;10675;47.976;7.824;2023-03-23T13:36:42;17.50;69.50
21033;DHT22;10675;47.976;7.824;2023-03-23T13:39:25;17.50;69.10
21033;DHT22;10675;47.976;7.824;2023-03-23T13:47:27;17.70;69.80
21033;DHT22;10675;47.976;7.824;2023-03-23T13:50:03;17.80;70.50
21033;DHT22;10675;47.976;7.824;2023-03-23T14:05:37;17.60;68.30
21033;DHT22;10675;47.976;7.824;2023-03-23T14:10:43;17.50;67.90
21033;DHT22;10675;47.976;7.824;2023-03-23T14:13:20;17.50;69.20
21033;DHT22;10675;47.976;7.824;2023-03-23T14:16:01;17.40;67.00
21033;DHT22;10675;47.976;7.824;2023-03-23T14:18:38;17.30;66.60
21033;DHT22;10675;47.976;7.824;2023-03-23T14:21:05;17.20;67.20
21033;DHT22;10675;47.976;7.824;2023-03-23T14:23:33;17.20;66.80
21033;DHT22;10675;47.976;7.824;2023-03-23T14:26:08;17.10;66.40
21033;DHT22;10675;47.976;7.824;2023-03-23T14:28:41;17.10;66.70
21033;DHT22;10675;47.976;7.824;2023-03-23T14:31:20;17.10;67.60
21033;DHT22;10675;47.976;7.824;2023-03-23T14:33:46;17.10;66.90
21033;DHT22;10675;47.976;7.824;2023-03-23T14:36:14;17.00;66.60
21033;DHT22;10675;47.976;7.824;2023-03-23T14:38:40;17.00;67.60
21033;DHT22;10675;47.976;7.824;2023-03-23T14:41:06;17.00;67.30
21033;DHT22;10675;47.976;7.824;2023-03-23T14:43:34;17.00;68.50
21033;DHT22;10675;47.976;7.824;2023-03-23T14:46:02;17.00;67.80
21033;DHT22;10675;47.976;7.824;2023-03-23T14:48:30;17.00;68.40
21033;DHT22;10675;47.976;7.824;2023-03-23T14:50:58;17.00;68.10
21033;DHT22;10675;47.976;7.824;2023-03-23T14:53:35;17.00;68.30
21033;DHT22;10675;47.976;7.824;2023-03-23T14:56:09;17.00;68.80
21033;DHT22;10675;47.976;7.824;2023-03-23T14:58:35;17.10;68.60
21033;DHT22;10675;47.976;7.824;2023-03-23T15:01:10;17.10;68.40
21033;DHT22;10675;47.976;7.824;2023-03-23T15:03:43;17.20;68.30
21033;DHT22;10675;47.976;7.824;2023-03-23T15:06:15;17.20;68.60
21033;DHT22;10675;47.976;7.824;2023-03-23T15:08:42;17.20;68.30
21033;DHT22;10675;47.976;7.824;2023-03-23T15:13:47;17.30;68.20
21033;DHT22;10675;47.976;7.824;2023-03-23T15:16:19;17.30;68.20
21033;DHT22;10675;47.976;7.824;2023-03-23T15:21:33;17.30;69.20
21033;DHT22;10675;47.976;7.824;2023-03-23T15:24:17;17.30;69.90
21033;DHT22;10675;47.976;7.824;2023-03-23T15:26:44;17.40;70.70
21033;DHT22;10675;47.976;7.824;2023-03-23T15:29:17;17.30;70.10
21033;DHT22;10675;47.976;7.824;2023-03-23T15:31:48;17.40;69.80
21033;DHT22;10675;47.976;7.824;2023-03-23T15:34:35;17.40;69.20
21033;DHT22;10675;47.976;7.824;2023-03-23T15:39:44;17.40;69.50
21033;DHT22;10675;47.976;7.824;2023-03-23T15:42:22;17.40;68.80
21033;DHT22;10675;47.976;7.824;2023-03-23T15:44:56;17.40;69.00
21033;DHT22;10675;47.976;7.824;2023-03-23T15:47:32;17.40;68.50
21033;DHT22;10675;47.976;7.824;2023-03-23T15:50:04;17.40;68.30
21033;DHT22;10675;47.976;7.824;2023-03-23T15:52:33;17.50;67.90
21033;DHT22;10675;47.976;7.824;2023-03-23T15:54:58;17.50;67.80
21033;DHT22;10675;47.976;7.824;2023-03-23T15:57:24;17.50;67.40
21033;DHT22;10675;47.976;7.824;2023-03-23T15:59:49;17.50;67.50
21033;DHT22;10675;47.976;7.824;2023-03-23T16:02:20;17.50;67.60
21033;DHT22;10675;47.976;7.824;2023-03-23T16:04:47;17.50;67.30
21033;DHT22;10675;47.976;7.824;2023-03-23T16:07:13;17.50;67.50
21033;DHT22;10675;47.976;7.824;2023-03-23T16:09:39;17.40;67.20
21033;DHT22;10675;47.976;7.824;2023-03-23T16:12:12;17.50;68.30
21033;DHT22;10675;47.976;7.824;2023-03-23T16:14:39;17.50;68.30
21033;DHT22;10675;47.976;7.824;2023-03-23T16:17:05;17.50;66.70
21033;DHT22;10675;47.976;7.824;2023-03-23T16:19:30;17.10;67.20
21033;DHT22;10675;47.976;7.824;2023-03-23T16:21:57;17.50;68.10
21033;DHT22;10675;47.976;7.824;2023-03-23T16:24:22;17.40;68.10
21033;DHT22;10675;47.976;7.824;2023-03-23T16:26:48;17.40;67.50
21033;DHT22;10675;47.976;7.824;2023-03-23T16:29:15;17.40;67.70
21033;DHT22;10675;47.976;7.824;2023-03-23T16:31:41;17.40;67.30
21033;DHT22;10675;47.976;7.824;2023-03-23T16:34:07;17.40;67.10
21033;DHT22;10675;47.976;7.824;2023-03-23T16:36:33;17.40;67.10
21033;DHT22;10675;47.976;7.824;2023-03-23T16:38:58;17.40;67.30
21033;DHT22;10675;47.976;7.824;2023-03-23T16:41:24;17.40;67.20
21033;DHT22;10675;47.976;7.824;2023-03-23T16:43:49;17.40;66.90
21033;DHT22;10675;47.976;7.824;2023-03-23T16:46:15;17.40;67.50
21033;DHT22;10675;47.976;7.824;2023-03-23T16:48:41;17.40;67.50
21033;DHT22;10675;47.976;7.824;2023-03-23T16:51:07;17.40;67.40
21033;DHT22;10675;47.976;7.824;2023-03-23T16:53:32;17.40;67.80
21033;DHT22;10675;47.976;7.824;2023-03-23T16:55:58;17.40;67.30
21033;DHT22;10675;47.976;7.824;2023-03-23T16:58:24;17.40;67.10
21033;DHT22;10675;47.976;7.824;2023-03-23T17:00:50;17.50;66.50
21033;DHT22;10675;47.976;7.824;2023-03-23T17:03:20;17.50;66.80
21033;DHT22;10675;47.976;7.824;2023-03-23T17:05:50;17.50;66.50
21033;DHT22;10675;47.976;7.824;2023-03-23T17:08:17;17.40;67.40
21033;DHT22;10675;47.976;7.824;2023-03-23T17:10:43;17.40;67.40
21033;DHT22;10675;47.976;7.824;2023-03-23T17:13:10;17.50;66.60
21033;DHT22;10675;47.976;7.824;2023-03-23T17:15:40;17.40;67.50
21033;DHT22;10675;47.976;7.824;2023-03-23T17:18:06;17.40;67.20
21033;DHT22;10675;47.976;7.824;2023-03-23T17:20:32;17.40;67.40
21033;DHT22;10675;47.976;7.824;2023-03-23T17:22:58;17.40;67.40
21033;DHT22;10675;47.976;7.824;2023-03-23T17:25:25;17.40;67.70
21033;DHT22;10675;47.976;7.824;2023-03-23T17:27:51;17.40;67.30
21033;DHT22;10675;47.976;7.824;2023-03-23T17:30:17;17.50;66.30
21033;DHT22;10675;47.976;7.824;2023-03-23T17:32:43;17.50;66.90
21033;DHT22;10675;47.976;7.824;2023-03-23T17:35:09;17.40;67.40
21033;DHT22;10675;47.976;7.824;2023-03-23T17:37:35;17.30;67.60